Time;durP1;ratioP1;P1;durP2;ratioP2;P2;SDS_P1;SDS_P2;PMS_P1;PMS_P2;Temp;Humidity;BMP_temperature;BMP_pressure;BME280_temperature;BME280_humidity;BME280_pressure;Samples;Min_cycle;Max_cycle;Signal;HPM_P1;HPM_P2
2022/11/15 00:00:28;;;;;;;42.72;15.88;;;;;;;;;;10339278;23;20348;-93
2022/11/15 00:04:42;;;;;;;45.03;18.13;;;;;;;;;;10356266;23;20077;-94
2022/11/15 00:08:45;;;;;;;44.38;17.10;;;;;;;;;;10341389;23;20498;-96
2022/11/15 00:12:48;;;;;;;22.33;9.13;;;;;;;;;;10325121;23;20024;-92
2022/11/15 00:16:51;;;;;;;42.38;17.13;;;;;;;;;;10344495;23;20020;-92
2022/11/15 00:20:56;;;;;;;56.50;19.15;;;;;;;;;;10345006;23;20392;-95
2022/11/15 00:25:00;;;;;;;52.70;18.77;;;;;;;;;;10344021;23;20090;-93
2022/11/15 00:29:03;;;;;;;48.88;19.42;;;;;;;;;;10376838;22;19996;-95
2022/11/15 00:33:06;;;;;;;52.17;17.92;;;;;;;;;;10384893;22;20011;-94
2022/11/15 00:37:10;;;;;;;51.33;19.70;;;;;;;;;;10390339;22;20042;-93
2022/11/15 00:41:13;;;;;;;54.30;18.00;;;;;;;;;;10376795;22;20020;-93
2022/11/15 00:45:16;;;;;;;47.88;17.85;;;;;;;;;;10316788;23;20102;-96
2022/11/15 00:49:19;;;;;;;51.33;17.08;;;;;;;;;;10343633;23;20020;-94
2022/11/15 00:53:23;;;;;;;43.25;15.48;;;;;;;;;;10343473;23;20023;-96
2022/11/15 00:57:26;;;;;;;51.95;16.70;;;;;;;;;;10343211;23;20045;-95
2022/11/15 01:01:28;;;;;;;43.20;16.60;;;;;;;;;;10343106;23;20044;-95
2022/11/15 01:05:31;;;;;;;53.22;19.60;;;;;;;;;;10342832;23;20154;-95
2022/11/15 01:09:35;;;;;;;50.35;18.35;;;;;;;;;;10342283;23;20020;-95
2022/11/15 01:13:38;;;;;;;52.03;17.35;;;;;;;;;;10342722;23;20486;-93
2022/11/15 01:17:41;;;;;;;52.92;16.58;;;;;;;;;;10342452;23;20022;-95
2022/11/15 01:21:44;;;;;;;44.42;16.45;;;;;;;;;;10342418;23;20038;-93
2022/11/15 01:25:48;;;;;;;47.15;16.77;;;;;;;;;;10342413;23;20020;-93
2022/11/15 01:29:51;;;;;;;58.25;18.42;;;;;;;;;;10342190;23;20092;-93
2022/11/15 01:33:54;;;;;;;37.83;14.90;;;;;;;;;;10342984;23;20020;-94
2022/11/15 01:37:57;;;;;;;45.97;15.40;;;;;;;;;;10342003;23;20020;-92
2022/11/15 01:42:01;;;;;;;49.92;17.73;;;;;;;;;;10342284;23;20077;-95
2022/11/15 01:46:16;;;;;;;44.35;15.23;;;;;;;;;;10342198;23;20467;-94
2022/11/15 01:50:22;;;;;;;47.65;17.63;;;;;;;;;;10342059;23;20024;-94
2022/11/15 01:54:26;;;;;;;47.67;15.85;;;;;;;;;;10342114;23;20020;-94
2022/11/15 01:58:30;;;;;;;46.78;15.48;;;;;;;;;;10341766;23;20027;-95
2022/11/15 02:02:34;;;;;;;47.63;15.20;;;;;;;;;;10341612;23;20051;-95
2022/11/15 02:06:37;;;;;;;47.90;17.02;;;;;;;;;;10341741;23;20082;-95
2022/11/15 02:10:41;;;;;;;51.15;16.27;;;;;;;;;;10341174;23;20020;-94
2022/11/15 02:14:48;;;;;;;34.30;12.90;;;;;;;;;;10341329;23;20044;-95
2022/11/15 02:18:57;;;;;;;35.97;13.20;;;;;;;;;;10342021;23;20016;-95
2022/11/15 02:23:32;;;;;;;34.78;14.63;;;;;;;;;;10358571;23;20020;-94
2022/11/15 02:28:08;;;;;;;32.72;9.48;;;;;;;;;;10358238;23;20471;-95
2022/11/15 02:32:19;;;;;;;36.97;13.73;;;;;;;;;;10341910;23;20027;-95
2022/11/15 02:36:35;;;;;;;47.72;16.08;;;;;;;;;;10341326;23;20388;-94
2022/11/15 02:40:47;;;;;;;43.75;14.25;;;;;;;;;;10341524;23;20027;-95
2022/11/15 02:44:52;;;;;;;37.47;14.27;;;;;;;;;;10341446;23;20052;-95
2022/11/15 02:48:56;;;;;;;52.92;16.33;;;;;;;;;;10341066;23;20099;-95
2022/11/15 02:52:58;;;;;;;48.58;15.10;;;;;;;;;;10341231;23;20022;-94
2022/11/15 02:57:04;;;;;;;39.60;13.90;;;;;;;;;;10340402;23;20016;-94
2022/11/15 03:01:14;;;;;;;38.25;13.35;;;;;;;;;;10341140;23;20027;-96
2022/11/15 03:05:25;;;;;;;57.25;16.23;;;;;;;;;;10341908;23;20027;-95
2022/11/15 03:09:35;;;;;;;49.60;17.20;;;;;;;;;;10341639;23;20016;-96
2022/11/15 03:13:45;;;;;;;54.15;15.48;;;;;;;;;;10339879;23;20039;-94
2022/11/15 03:17:54;;;;;;;52.55;15.55;;;;;;;;;;10356831;23;20020;-94
2022/11/15 03:22:01;;;;;;;51.30;20.67;;;;;;;;;;10357003;23;20039;-94
2022/11/15 03:26:08;;;;;;;314.08;147.35;;;;;;;;;;10340607;23;20043;-94
2022/11/15 03:30:12;;;;;;;50.97;25.25;;;;;;;;;;10340759;23;20065;-93
2022/11/15 03:34:24;;;;;;;42.08;15.70;;;;;;;;;;10339963;23;20020;-93
2022/11/15 03:38:33;;;;;;;50.33;18.20;;;;;;;;;;10337742;23;20024;-93
2022/11/15 03:42:43;;;;;;;45.03;15.07;;;;;;;;;;10339722;23;20020;-94
2022/11/15 03:46:52;;;;;;;40.47;13.77;;;;;;;;;;10339617;23;20449;-94
2022/11/15 03:50:56;;;;;;;46.40;17.95;;;;;;;;;;10339791;23;20012;-94
2022/11/15 03:55:02;;;;;;;41.13;16.15;;;;;;;;;;10339303;23;20048;-94
2022/11/15 03:59:05;;;;;;;40.13;13.43;;;;;;;;;;10339542;23;20344;-94
2022/11/15 04:03:08;;;;;;;42.13;16.75;;;;;;;;;;10339184;23;20141;-94
2022/11/15 04:07:11;;;;;;;55.13;16.08;;;;;;;;;;10339187;23;20026;-94
2022/11/15 04:11:15;;;;;;;38.70;14.32;;;;;;;;;;10338990;23;20142;-94
2022/11/15 04:15:21;;;;;;;42.20;17.88;;;;;;;;;;10338936;23;20028;-93
2022/11/15 04:28:16;;;;;;;46.33;13.73;;;;;;;;;;10224332;23;20470;-96
2022/11/15 04:32:19;;;;;;;37.72;13.15;;;;;;;;;;10340898;23;20024;-95
2022/11/15 04:40:43;;;;;;;32.42;12.07;;;;;;;;;;10339645;23;20070;-93
2022/11/15 04:44:47;;;;;;;39.42;13.45;;;;;;;;;;10339489;23;20278;-94
2022/11/15 04:48:50;;;;;;;36.08;12.43;;;;;;;;;;10339219;23;20091;-93
2022/11/15 04:52:53;;;;;;;32.33;12.48;;;;;;;;;;10339386;23;20142;-94
2022/11/15 04:56:56;;;;;;;34.58;15.38;;;;;;;;;;10339171;23;20098;-93
2022/11/15 05:01:08;;;;;;;31.77;11.50;;;;;;;;;;10312130;23;20073;-94
2022/11/15 05:05:11;;;;;;;29.58;12.60;;;;;;;;;;10339040;23;20504;-93
2022/11/15 05:09:14;;;;;;;30.55;11.27;;;;;;;;;;10339015;23;20016;-93
2022/11/15 05:13:17;;;;;;;33.50;12.75;;;;;;;;;;10338430;23;20445;-93
2022/11/15 05:17:21;;;;;;;30.80;12.05;;;;;;;;;;10338978;23;20452;-93
2022/11/15 05:21:24;;;;;;;34.97;10.57;;;;;;;;;;10380875;22;20030;-93
2022/11/15 05:25:26;;;;;;;30.88;10.48;;;;;;;;;;10387686;22;20004;-94
2022/11/15 05:29:29;;;;;;;30.73;11.10;;;;;;;;;;10389441;22;20004;-94
2022/11/15 05:33:34;;;;;;;31.75;11.18;;;;;;;;;;10375379;22;20020;-95
2022/11/15 05:37:37;;;;;;;25.58;10.18;;;;;;;;;;10359522;23;20443;-93
2022/11/15 05:41:44;;;;;;;27.02;9.77;;;;;;;;;;10342280;23;20082;-94
2022/11/15 05:45:46;;;;;;;29.65;10.70;;;;;;;;;;10342186;23;20158;-93
2022/11/15 05:49:51;;;;;;;25.05;10.95;;;;;;;;;;10341964;23;20385;-93
2022/11/15 05:53:56;;;;;;;33.60;10.43;;;;;;;;;;10341932;23;20016;-94
2022/11/15 05:57:58;;;;;;;26.98;8.85;;;;;;;;;;10340661;23;20023;-93
2022/11/15 06:02:01;;;;;;;29.38;10.07;;;;;;;;;;10341319;23;20028;-94
2022/11/15 06:06:07;;;;;;;27.10;9.57;;;;;;;;;;10340291;23;20039;-92
2022/11/15 06:10:10;;;;;;;25.08;10.88;;;;;;;;;;10358313;23;20046;-95
2022/11/15 06:14:14;;;;;;;26.83;10.55;;;;;;;;;;10341819;23;20073;-95
2022/11/15 06:18:17;;;;;;;28.55;10.48;;;;;;;;;;10341837;23;20016;-95
2022/11/15 06:22:21;;;;;;;30.40;10.93;;;;;;;;;;10341754;23;20027;-95
2022/11/15 06:26:24;;;;;;;27.42;11.05;;;;;;;;;;10341944;23;20035;-95
2022/11/15 06:30:28;;;;;;;25.42;10.98;;;;;;;;;;10342093;23;20024;-91
2022/11/15 06:34:31;;;;;;;27.20;10.98;;;;;;;;;;10339075;23;20020;-92
2022/11/15 06:38:35;;;;;;;27.65;9.90;;;;;;;;;;10336812;23;20019;-92
2022/11/15 06:42:38;;;;;;;31.60;10.18;;;;;;;;;;10338154;23;20020;-93
2022/11/15 06:46:41;;;;;;;28.83;10.40;;;;;;;;;;10338433;23;20091;-93
2022/11/15 06:50:44;;;;;;;22.67;10.50;;;;;;;;;;10338384;23;20035;-93
2022/11/15 06:54:47;;;;;;;24.92;11.18;;;;;;;;;;10338787;23;20031;-94
2022/11/15 06:58:50;;;;;;;26.65;11.45;;;;;;;;;;10342316;23;20322;-93
2022/11/15 07:02:53;;;;;;;24.08;10.15;;;;;;;;;;10339106;23;20020;-95
2022/11/15 07:06:56;;;;;;;26.63;11.90;;;;;;;;;;10338860;23;20348;-93
2022/11/15 07:11:02;;;;;;;30.42;11.40;;;;;;;;;;10312250;23;20016;-94
2022/11/15 07:15:13;;;;;;;32.25;14.80;;;;;;;;;;10335952;23;20155;-94
2022/11/15 07:19:17;;;;;;;24.02;9.65;;;;;;;;;;10352607;23;20016;-96
2022/11/15 07:23:20;;;;;;;23.80;9.90;;;;;;;;;;10336730;23;20026;-93
2022/11/15 07:27:24;;;;;;;25.45;8.63;;;;;;;;;;10337499;23;20048;-93
2022/11/15 07:31:27;;;;;;;30.70;15.18;;;;;;;;;;10337855;23;20019;-95
2022/11/15 07:35:31;;;;;;;24.52;10.63;;;;;;;;;;10337825;23;20023;-95
2022/11/15 07:39:34;;;;;;;21.92;10.80;;;;;;;;;;10337208;23;20023;-94
2022/11/15 07:43:39;;;;;;;28.33;12.93;;;;;;;;;;10336400;23;20020;-92
2022/11/15 07:47:41;;;;;;;20.35;9.20;;;;;;;;;;10339933;23;20083;-94
2022/11/15 07:51:45;;;;;;;16.13;7.32;;;;;;;;;;10338528;23;20451;-96
2022/11/15 07:55:48;;;;;;;27.08;10.95;;;;;;;;;;10337561;23;20020;-94
2022/11/15 07:59:52;;;;;;;22.38;11.38;;;;;;;;;;10338690;23;20103;-92
2022/11/15 08:03:55;;;;;;;28.30;9.38;;;;;;;;;;10337047;23;20026;-94
2022/11/15 08:07:58;;;;;;;26.17;11.50;;;;;;;;;;10339329;23;20016;-96
2022/11/15 08:12:01;;;;;;;24.20;11.02;;;;;;;;;;10339328;23;20035;-94
2022/11/15 08:21:34;;;;;;;22.17;11.50;;;;;;;;;;10332288;22;20028;-92
2022/11/15 08:25:38;;;;;;;23.88;12.13;;;;;;;;;;10336266;23;20094;-94
2022/11/15 08:29:41;;;;;;;22.73;12.00;;;;;;;;;;10336464;23;20020;-94
2022/11/15 08:33:44;;;;;;;21.20;10.10;;;;;;;;;;10336614;23;20036;-95
2022/11/15 08:37:49;;;;;;;23.08;11.25;;;;;;;;;;10336284;23;20027;-94
2022/11/15 08:41:52;;;;;;;25.40;11.07;;;;;;;;;;10346752;23;20020;-92
2022/11/15 08:46:01;;;;;;;20.98;9.95;;;;;;;;;;10344502;23;20046;-94
2022/11/15 08:50:05;;;;;;;23.02;11.13;;;;;;;;;;10338129;23;20507;-94
2022/11/15 08:54:09;;;;;;;24.73;11.68;;;;;;;;;;10337119;23;20040;-93
2022/11/15 08:58:12;;;;;;;20.35;10.60;;;;;;;;;;10342386;23;20091;-93
2022/11/15 09:02:17;;;;;;;20.08;10.60;;;;;;;;;;10354441;23;20357;-96
2022/11/15 09:06:20;;;;;;;20.27;11.20;;;;;;;;;;10345319;23;20452;-95
2022/11/15 09:10:24;;;;;;;19.00;10.35;;;;;;;;;;10344590;23;20016;-92
2022/11/15 09:14:27;;;;;;;18.67;10.65;;;;;;;;;;10349439;23;20051;-96
2022/11/15 09:18:30;;;;;;;19.52;11.45;;;;;;;;;;10354964;23;20024;-96
2022/11/15 09:22:33;;;;;;;23.50;12.30;;;;;;;;;;10342772;23;20034;-95
2022/11/15 09:26:37;;;;;;;17.42;10.45;;;;;;;;;;10343185;23;20059;-95
2022/11/15 09:30:40;;;;;;;18.73;10.70;;;;;;;;;;10341467;23;20020;-94
2022/11/15 09:34:45;;;;;;;17.38;11.13;;;;;;;;;;10341458;23;20047;-94
2022/11/15 09:38:48;;;;;;;18.42;11.48;;;;;;;;;;10340438;23;20020;-95
2022/11/15 09:43:10;;;;;;;18.70;11.32;;;;;;;;;;10340773;23;20016;-95
2022/11/15 09:47:37;;;;;;;16.85;10.88;;;;;;;;;;10358959;23;20377;-94
2022/11/15 09:51:46;;;;;;;16.23;10.95;;;;;;;;;;10339883;23;20016;-95
2022/11/15 09:55:56;;;;;;;16.95;11.30;;;;;;;;;;10357579;23;20142;-96
2022/11/15 10:00:14;;;;;;;16.20;9.85;;;;;;;;;;10341510;23;20408;-94
2022/11/15 10:14:29;;;;;;;17.02;9.90;;;;;;;;;;10333622;22;20054;-94
2022/11/15 10:18:41;;;;;;;18.67;10.75;;;;;;;;;;10340699;23;20028;-95
2022/11/15 10:31:25;;;;;;;17.33;9.32;;;;;;;;;;10310285;23;20047;-96
2022/11/15 10:35:31;;;;;;;15.63;9.13;;;;;;;;;;10323414;23;20009;-93
2022/11/15 10:39:34;;;;;;;18.63;10.10;;;;;;;;;;10360946;22;20056;-95
2022/11/15 10:43:37;;;;;;;17.58;10.15;;;;;;;;;;10336398;23;20021;-94
2022/11/15 10:47:40;;;;;;;15.80;8.95;;;;;;;;;;10305477;23;20013;-94
2022/11/15 10:56:51;;;;;;;17.10;9.20;;;;;;;;;;10018102;23;20023;-91
2022/11/15 11:00:54;;;;;;;14.73;8.98;;;;;;;;;;10036439;23;20034;-89
2022/11/15 11:04:59;;;;;;;18.20;8.65;;;;;;;;;;10034079;23;20113;-89
2022/11/15 11:09:04;;;;;;;43.50;18.88;;;;;;;;;;10034933;23;20027;-90
2022/11/15 11:13:16;;;;;;;18.75;10.65;;;;;;;;;;10036495;23;20034;-91
2022/11/15 11:17:29;;;;;;;16.77;9.50;;;;;;;;;;10047947;23;20030;-90
2022/11/15 11:21:40;;;;;;;15.05;8.75;;;;;;;;;;10035224;23;20109;-91
2022/11/15 11:25:52;;;;;;;15.38;9.23;;;;;;;;;;10037348;23;20352;-91
2022/11/15 11:30:11;;;;;;;14.07;7.47;;;;;;;;;;10012058;23;20030;-90
2022/11/15 11:34:20;;;;;;;14.65;9.05;;;;;;;;;;10033976;23;20090;-91
2022/11/15 11:38:38;;;;;;;15.70;9.20;;;;;;;;;;10034664;23;20427;-91
2022/11/15 11:42:47;;;;;;;16.83;9.55;;;;;;;;;;10037699;23;20034;-92
2022/11/15 11:46:57;;;;;;;17.70;9.93;;;;;;;;;;10140588;23;20026;-91
2022/11/15 11:51:06;;;;;;;15.18;9.10;;;;;;;;;;10206693;23;20086;-93
2022/11/15 11:55:17;;;;;;;13.27;7.25;;;;;;;;;;10298527;23;20034;-92
2022/11/15 11:59:26;;;;;;;14.45;9.98;;;;;;;;;;10281447;23;20123;-92
2022/11/15 12:03:39;;;;;;;19.15;11.32;;;;;;;;;;10297366;23;20077;-90
2022/11/15 12:07:44;;;;;;;18.85;11.00;;;;;;;;;;10296973;23;20055;-91
2022/11/15 12:11:53;;;;;;;27.63;14.30;;;;;;;;;;10286636;23;20016;-92
2022/11/15 12:16:04;;;;;;;21.02;12.52;;;;;;;;;;10296399;23;20472;-90
2022/11/15 12:20:18;;;;;;;21.50;11.27;;;;;;;;;;10295569;23;20055;-91
2022/11/15 12:24:24;;;;;;;19.85;11.52;;;;;;;;;;10289822;23;20046;-91
2022/11/15 12:28:38;;;;;;;23.90;12.82;;;;;;;;;;10296276;23;20124;-89
2022/11/15 12:32:52;;;;;;;22.95;12.00;;;;;;;;;;10300046;23;20020;-89
2022/11/15 12:36:57;;;;;;;20.08;10.85;;;;;;;;;;10299493;23;20032;-91
2022/11/15 12:41:16;;;;;;;22.75;12.77;;;;;;;;;;10282164;23;20463;-92
2022/11/15 12:45:29;;;;;;;23.60;12.68;;;;;;;;;;10287551;23;20388;-89
2022/11/15 12:49:46;;;;;;;22.35;12.73;;;;;;;;;;10287595;23;20794;-88
2022/11/15 12:53:50;;;;;;;25.20;12.77;;;;;;;;;;10304869;23;20050;-91
2022/11/15 12:57:53;;;;;;;21.50;12.65;;;;;;;;;;10283749;23;20071;-90
2022/11/15 13:02:00;;;;;;;34.00;17.20;;;;;;;;;;10283696;23;20020;-91
2022/11/15 13:06:35;;;;;;;25.73;15.55;;;;;;;;;;10300647;23;20711;-90
2022/11/15 13:10:39;;;;;;;25.52;14.18;;;;;;;;;;10283800;23;20140;-90
2022/11/15 13:14:57;;;;;;;22.98;12.85;;;;;;;;;;10281642;23;20457;-90
2022/11/15 13:19:02;;;;;;;22.90;13.85;;;;;;;;;;10298463;23;20052;-90
2022/11/15 13:23:11;;;;;;;23.83;13.45;;;;;;;;;;10298714;23;20028;-90
2022/11/15 13:27:19;;;;;;;26.75;15.25;;;;;;;;;;10303588;23;20020;-94
2022/11/15 13:31:31;;;;;;;39.38;18.15;;;;;;;;;;10285415;23;20027;-94
2022/11/15 13:35:38;;;;;;;30.88;16.48;;;;;;;;;;10304619;23;20017;-92
2022/11/15 13:39:41;;;;;;;31.55;17.80;;;;;;;;;;10305236;23;20027;-93
2022/11/15 13:43:45;;;;;;;35.55;16.73;;;;;;;;;;10289154;23;20107;-93
2022/11/15 13:47:54;;;;;;;29.83;16.95;;;;;;;;;;10282583;23;20047;-90
2022/11/15 13:51:57;;;;;;;31.90;15.95;;;;;;;;;;10297262;23;20024;-94
2022/11/15 13:56:00;;;;;;;37.00;18.63;;;;;;;;;;10296186;23;20067;-94
2022/11/15 14:00:08;;;;;;;29.70;15.40;;;;;;;;;;10291356;23;20387;-95
2022/11/15 14:04:15;;;;;;;32.90;17.25;;;;;;;;;;10291024;23;20096;-92
2022/11/15 14:08:24;;;;;;;56.03;31.15;;;;;;;;;;10290357;23;20016;-93
2022/11/15 14:12:32;;;;;;;48.28;25.42;;;;;;;;;;10313034;23;20525;-95
2022/11/15 14:16:38;;;;;;;31.63;17.10;;;;;;;;;;10290389;23;20021;-95
2022/11/15 14:20:41;;;;;;;28.73;16.10;;;;;;;;;;10308391;23;20071;-95
2022/11/15 14:29:25;;;;;;;26.75;14.73;;;;;;;;;;10295569;23;20025;-96
2022/11/15 14:33:32;;;;;;;25.98;13.60;;;;;;;;;;10308919;23;20436;-96
2022/11/15 14:37:35;;;;;;;27.35;14.93;;;;;;;;;;10294445;23;20020;-96
2022/11/15 14:41:38;;;;;;;24.17;14.70;;;;;;;;;;10292057;23;20039;-95
2022/11/15 14:45:42;;;;;;;27.20;14.52;;;;;;;;;;10293030;23;20090;-94
2022/11/15 14:49:46;;;;;;;24.77;13.32;;;;;;;;;;10291827;23;20017;-96
2022/11/15 14:53:50;;;;;;;44.22;22.40;;;;;;;;;;10315265;23;20123;-95
2022/11/15 14:57:58;;;;;;;112.63;45.17;;;;;;;;;;10300485;23;20391;-92
2022/11/15 15:02:09;;;;;;;593.05;279.25;;;;;;;;;;10314830;23;20025;-90
2022/11/15 15:06:14;;;;;;;209.27;94.85;;;;;;;;;;10306385;23;20473;-92
2022/11/15 15:10:17;;;;;;;91.72;41.33;;;;;;;;;;10289805;23;20023;-90
2022/11/15 15:14:20;;;;;;;68.25;34.60;;;;;;;;;;10289440;23;20747;-92
2022/11/15 15:18:23;;;;;;;40.13;22.23;;;;;;;;;;10288093;23;20066;-93
2022/11/15 15:22:30;;;;;;;248.30;106.82;;;;;;;;;;10286972;23;20028;-92
2022/11/15 15:26:36;;;;;;;57.92;29.27;;;;;;;;;;10312855;23;20082;-92
2022/11/15 15:30:38;;;;;;;48.83;25.65;;;;;;;;;;10285740;23;20390;-94
2022/11/15 15:44:38;;;;;;;90.97;42.28;;;;;;;;;;10292730;23;20411;-94
2022/11/15 15:58:56;;;;;;;99.10;44.88;;;;;;;;;;10307973;23;20299;-93
2022/11/15 16:03:09;;;;;;;95.68;44.15;;;;;;;;;;10295797;23;20344;-94
2022/11/15 16:07:18;;;;;;;60.80;28.95;;;;;;;;;;10289177;23;20024;-94
2022/11/15 16:11:21;;;;;;;59.53;28.77;;;;;;;;;;10312188;23;20048;-93
2022/11/15 16:15:27;;;;;;;43.58;19.88;;;;;;;;;;10287398;23;20039;-93
2022/11/15 16:19:33;;;;;;;150.88;51.35;;;;;;;;;;10304400;23;20266;-94
2022/11/15 16:23:36;;;;;;;61.70;29.70;;;;;;;;;;10286756;23;20744;-94
2022/11/15 16:27:46;;;;;;;296.63;102.18;;;;;;;;;;10287198;23;20103;-93
2022/11/15 16:31:50;;;;;;;139.23;56.67;;;;;;;;;;10287380;23;20016;-93
2022/11/15 16:35:53;;;;;;;108.20;47.90;;;;;;;;;;10286988;23;20016;-93
2022/11/15 16:39:56;;;;;;;161.27;56.95;;;;;;;;;;10309977;23;20028;-93
2022/11/15 16:43:59;;;;;;;76.30;36.00;;;;;;;;;;10284322;23;20056;-93
2022/11/15 16:48:04;;;;;;;108.85;47.95;;;;;;;;;;10285875;23;20043;-93
2022/11/15 16:52:06;;;;;;;85.00;35.95;;;;;;;;;;10285432;23;20095;-94
2022/11/15 16:56:23;;;;;;;75.72;31.80;;;;;;;;;;10286968;23;20027;-94
2022/11/15 17:00:26;;;;;;;62.05;25.85;;;;;;;;;;10284962;23;20107;-93
2022/11/15 17:04:32;;;;;;;134.00;46.25;;;;;;;;;;10309318;23;20058;-93
2022/11/15 17:08:36;;;;;;;57.03;24.77;;;;;;;;;;10285267;23;20025;-93
2022/11/15 17:12:38;;;;;;;64.57;31.55;;;;;;;;;;10285563;23;20025;-95
2022/11/15 17:16:43;;;;;;;59.50;30.08;;;;;;;;;;10287609;23;20155;-94
2022/11/15 17:20:48;;;;;;;63.33;31.65;;;;;;;;;;10314393;23;20028;-91
2022/11/15 17:24:51;;;;;;;58.55;26.25;;;;;;;;;;10284906;23;20080;-92
2022/11/15 17:28:56;;;;;;;129.43;47.60;;;;;;;;;;10288092;23;20024;-93
2022/11/15 17:33:00;;;;;;;74.35;31.80;;;;;;;;;;10311232;23;20488;-93
2022/11/15 17:37:08;;;;;;;74.07;33.13;;;;;;;;;;10305292;23;20020;-93
2022/11/15 17:41:14;;;;;;;211.75;73.75;;;;;;;;;;10304376;23;20099;-91
2022/11/15 17:45:17;;;;;;;119.03;47.08;;;;;;;;;;10289664;23;20422;-92
2022/11/15 17:49:20;;;;;;;94.30;42.00;;;;;;;;;;10312409;23;20242;-96
2022/11/15 17:53:26;;;;;;;133.10;58.08;;;;;;;;;;10288641;23;20449;-95
2022/11/15 17:57:29;;;;;;;100.40;45.92;;;;;;;;;;10304183;23;20024;-95
2022/11/15 18:01:34;;;;;;;82.28;38.97;;;;;;;;;;10287058;23;20016;-94
2022/11/15 18:05:37;;;;;;;70.72;31.38;;;;;;;;;;10291100;23;20020;-94
2022/11/15 18:09:44;;;;;;;188.23;67.70;;;;;;;;;;10289105;23;20074;-94
2022/11/15 18:13:49;;;;;;;98.20;42.08;;;;;;;;;;10304629;23;20507;-94
2022/11/15 18:17:51;;;;;;;292.42;115.25;;;;;;;;;;10285463;23;20107;-94
2022/11/15 18:21:57;;;;;;;219.10;84.00;;;;;;;;;;10286930;23;20745;-95
2022/11/15 18:26:03;;;;;;;93.60;39.70;;;;;;;;;;10306036;23;20021;-95
2022/11/15 18:30:08;;;;;;;214.85;102.53;;;;;;;;;;10303700;23;20036;-94
2022/11/15 18:34:10;;;;;;;142.15;65.65;;;;;;;;;;10289631;23;20040;-96
2022/11/15 18:38:22;;;;;;;94.32;40.75;;;;;;;;;;10299999;23;20025;-92
2022/11/15 18:42:45;;;;;;;61.72;28.98;;;;;;;;;;10300103;23;20118;-92
2022/11/15 18:46:52;;;;;;;104.13;41.88;;;;;;;;;;10330835;23;20043;-91
2022/11/15 18:51:02;;;;;;;229.48;81.50;;;;;;;;;;10336871;23;20032;-92
2022/11/15 18:55:20;;;;;;;296.95;102.22;;;;;;;;;;10313605;23;20028;-93
2022/11/15 18:59:51;;;;;;;300.05;102.05;;;;;;;;;;10316821;23;20024;-90
2022/11/15 19:04:08;;;;;;;125.32;56.72;;;;;;;;;;10291972;23;20020;-92
2022/11/15 19:08:11;;;;;;;118.00;48.65;;;;;;;;;;10292840;23;20381;-95
2022/11/15 19:12:15;;;;;;;338.65;119.55;;;;;;;;;;10289522;23;20037;-94
2022/11/15 19:16:19;;;;;;;139.43;53.03;;;;;;;;;;10290159;23;20112;-94
2022/11/15 19:20:22;;;;;;;80.75;36.17;;;;;;;;;;10317311;23;20040;-95
2022/11/15 19:24:28;;;;;;;96.80;45.08;;;;;;;;;;10298540;23;20044;-94
2022/11/15 19:28:32;;;;;;;99.60;45.65;;;;;;;;;;10296994;23;20516;-95
2022/11/15 19:32:41;;;;;;;155.30;60.25;;;;;;;;;;10294899;23;20024;-94
2022/11/15 19:36:45;;;;;;;582.13;207.90;;;;;;;;;;10297790;23;20040;-96
2022/11/15 19:40:50;;;;;;;402.98;131.68;;;;;;;;;;10293583;23;20032;-96
2022/11/15 19:44:54;;;;;;;315.80;102.43;;;;;;;;;;10294333;23;20020;-95
2022/11/15 19:48:59;;;;;;;150.38;54.47;;;;;;;;;;10291802;23;20107;-95
2022/11/15 19:53:03;;;;;;;203.88;70.53;;;;;;;;;;10296764;23;20024;-96
2022/11/15 19:57:06;;;;;;;93.60;44.35;;;;;;;;;;10297742;23;20071;-95
2022/11/15 20:01:15;;;;;;;105.95;46.28;;;;;;;;;;10317084;23;20024;-96
2022/11/15 20:05:19;;;;;;;214.07;80.57;;;;;;;;;;10292220;23;20020;-95
2022/11/15 20:09:25;;;;;;;171.63;64.35;;;;;;;;;;10317196;23;20448;-95
2022/11/15 20:13:31;;;;;;;449.02;160.07;;;;;;;;;;10293298;23;20025;-95
2022/11/15 20:17:35;;;;;;;76.25;37.40;;;;;;;;;;10293764;23;20024;-95
2022/11/15 20:21:45;;;;;;;107.28;44.33;;;;;;;;;;10292586;23;20032;-95
2022/11/15 20:25:50;;;;;;;83.05;39.60;;;;;;;;;;10318437;23;20035;-96
2022/11/15 20:29:53;;;;;;;112.50;48.25;;;;;;;;;;10317369;23;20342;-95
2022/11/15 20:33:57;;;;;;;307.25;109.95;;;;;;;;;;10293055;23;20444;-95
2022/11/15 20:38:06;;;;;;;82.68;37.55;;;;;;;;;;10319670;23;20044;-96
2022/11/15 20:42:10;;;;;;;112.35;43.35;;;;;;;;;;10294056;23;20044;-95
2022/11/15 20:46:13;;;;;;;106.93;45.35;;;;;;;;;;10294805;23;20055;-95
2022/11/15 20:50:19;;;;;;;178.95;64.93;;;;;;;;;;10296703;23;20120;-95
2022/11/15 20:54:23;;;;;;;145.38;56.90;;;;;;;;;;10298852;23;20178;-95
2022/11/15 20:58:28;;;;;;;127.32;48.88;;;;;;;;;;10297416;23;20034;-95
2022/11/15 21:02:34;;;;;;;123.85;46.55;;;;;;;;;;10321662;23;20522;-95
2022/11/15 21:06:37;;;;;;;90.38;38.83;;;;;;;;;;10297114;23;20464;-96
2022/11/15 21:15:03;;;;;;;80.00;34.30;;;;;;;;;;10299774;23;20071;-95
2022/11/15 21:19:06;;;;;;;139.75;55.50;;;;;;;;;;10303213;23;20024;-95
2022/11/15 21:23:09;;;;;;;213.25;82.22;;;;;;;;;;10336943;23;20016;-95
2022/11/15 21:27:14;;;;;;;223.38;88.60;;;;;;;;;;10336804;23;20039;-95
2022/11/15 21:31:17;;;;;;;84.38;35.20;;;;;;;;;;10338402;23;20056;-95
2022/11/15 21:35:20;;;;;;;55.33;25.45;;;;;;;;;;10363629;22;20012;-94
2022/11/15 21:39:27;;;;;;;66.43;27.15;;;;;;;;;;10339130;23;20004;-94
2022/11/15 21:43:31;;;;;;;58.15;26.80;;;;;;;;;;10293890;23;20016;-96
2022/11/15 21:47:34;;;;;;;62.10;28.42;;;;;;;;;;10295027;23;20024;-93
2022/11/15 21:51:37;;;;;;;67.60;26.40;;;;;;;;;;10292661;23;20390;-96
2022/11/15 21:55:40;;;;;;;43.85;22.00;;;;;;;;;;10316939;23;20398;-95
2022/11/15 22:04:05;;;;;;;69.80;28.85;;;;;;;;;;10231039;23;20062;-94
2022/11/15 22:08:08;;;;;;;46.50;23.73;;;;;;;;;;10291837;23;20020;-95
2022/11/15 22:12:11;;;;;;;45.40;21.92;;;;;;;;;;10291905;23;20104;-95
2022/11/15 22:16:15;;;;;;;46.60;20.17;;;;;;;;;;10316550;23;20056;-94
2022/11/15 22:20:33;;;;;;;58.17;24.98;;;;;;;;;;10296886;23;20066;-94
2022/11/15 22:24:41;;;;;;;49.33;23.60;;;;;;;;;;10302647;23;20021;-95
2022/11/15 22:28:44;;;;;;;60.03;26.25;;;;;;;;;;10291513;23;20039;-95
2022/11/15 22:32:48;;;;;;;65.30;27.55;;;;;;;;;;10286698;23;20107;-93
2022/11/15 22:36:51;;;;;;;61.70;27.52;;;;;;;;;;10288974;23;20127;-93
2022/11/15 22:40:54;;;;;;;58.67;26.20;;;;;;;;;;10288164;23;20074;-92
2022/11/15 22:44:57;;;;;;;70.13;28.73;;;;;;;;;;10288716;23;20462;-93
2022/11/15 22:49:01;;;;;;;59.97;27.30;;;;;;;;;;10289169;23;20393;-91
2022/11/15 22:53:04;;;;;;;71.75;30.23;;;;;;;;;;10289308;23;20025;-92
2022/11/15 22:57:06;;;;;;;103.75;35.72;;;;;;;;;;10289128;23;20031;-91
2022/11/15 23:01:20;;;;;;;85.57;30.95;;;;;;;;;;10291638;23;20031;-93
2022/11/15 23:05:23;;;;;;;62.75;27.35;;;;;;;;;;10306985;23;20017;-93
2022/11/15 23:09:27;;;;;;;57.75;24.73;;;;;;;;;;10293237;23;20143;-93
2022/11/15 23:13:29;;;;;;;49.92;22.20;;;;;;;;;;10290123;23;20027;-96
2022/11/15 23:17:32;;;;;;;52.00;21.42;;;;;;;;;;10290344;23;20062;-94
2022/11/15 23:25:59;;;;;;;52.95;21.30;;;;;;;;;;10290029;23;20043;-94
2022/11/15 23:34:22;;;;;;;39.88;16.70;;;;;;;;;;10306565;23;20151;-96
2022/11/15 23:38:26;;;;;;;36.90;16.50;;;;;;;;;;10289710;23;20337;-94
2022/11/15 23:42:28;;;;;;;36.30;16.75;;;;;;;;;;10289263;23;20024;-91
2022/11/15 23:46:31;;;;;;;35.08;15.23;;;;;;;;;;10289145;23;20074;-95
2022/11/15 23:50:35;;;;;;;41.65;16.73;;;;;;;;;;10288628;23;20031;-91
2022/11/15 23:54:39;;;;;;;33.55;15.23;;;;;;;;;;10288967;23;20020;-94
2022/11/15 23:58:43;;;;;;;40.38;17.38;;;;;;;;;;10288237;23;20021;-93
